sensor_id;sensor_type;location;lat;lon;timestamp;pressure;altitude;pressure_sealevel;temperature;humidity
12471;BME280;36499;46.484;13.832;2023-03-15T00:01:10;92010.53;;;6.61;84.75
12471;BME280;36499;46.484;13.832;2023-03-15T00:03:39;92012.63;;;6.71;84.22
12471;BME280;36499;46.484;13.832;2023-03-15T00:06:07;92006.06;;;6.68;84.22
12471;BME280;36499;46.484;13.832;2023-03-15T00:08:34;92010.25;;;6.69;84.40
12471;BME280;36499;46.484;13.832;2023-03-15T00:11:02;92011.47;;;6.67;84.58
12471;BME280;36499;46.484;13.832;2023-03-15T00:13:31;92007.88;;;6.68;84.77
12471;BME280;36499;46.484;13.832;2023-03-15T00:16:01;92013.56;;;6.77;83.99
12471;BME280;36499;46.484;13.832;2023-03-15T00:18:29;91998.81;;;6.77;84.26
12471;BME280;36499;46.484;13.832;2023-03-15T00:20:56;92000.63;;;6.77;83.88
12471;BME280;36499;46.484;13.832;2023-03-15T00:23:23;91999.19;;;6.81;83.96
12471;BME280;36499;46.484;13.832;2023-03-15T00:25:51;91997.44;;;6.74;83.90
12471;BME280;36499;46.484;13.832;2023-03-15T00:28:19;91994.13;;;6.67;83.75
12471;BME280;36499;46.484;13.832;2023-03-15T00:30:47;92003.84;;;6.54;84.20
12471;BME280;36499;46.484;13.832;2023-03-15T00:33:15;91999.75;;;6.46;84.71
12471;BME280;36499;46.484;13.832;2023-03-15T00:35:44;92002.97;;;6.42;84.89
12471;BME280;36499;46.484;13.832;2023-03-15T00:38:12;91992.28;;;6.32;85.59
12471;BME280;36499;46.484;13.832;2023-03-15T00:40:39;91995.03;;;6.37;85.79
12471;BME280;36499;46.484;13.832;2023-03-15T00:43:06;91992.47;;;6.55;84.41
12471;BME280;36499;46.484;13.832;2023-03-15T00:45:33;91999.03;;;6.57;84.46
12471;BME280;36499;46.484;13.832;2023-03-15T00:48:03;92005.47;;;6.48;84.35
12471;BME280;36499;46.484;13.832;2023-03-15T00:50:30;92004.91;;;6.46;84.27
12471;BME280;36499;46.484;13.832;2023-03-15T00:52:57;92002.72;;;6.43;84.32
12471;BME280;36499;46.484;13.832;2023-03-15T00:55:24;91999.28;;;6.31;85.40
12471;BME280;36499;46.484;13.832;2023-03-15T00:57:51;92008.78;;;6.37;84.38
12471;BME280;36499;46.484;13.832;2023-03-15T01:00:20;92006.84;;;6.51;83.46
12471;BME280;36499;46.484;13.832;2023-03-15T01:02:49;92001.47;;;6.52;83.42
12471;BME280;36499;46.484;13.832;2023-03-15T01:05:18;92004.16;;;6.39;83.80
12471;BME280;36499;46.484;13.832;2023-03-15T01:07:46;92017.69;;;6.41;83.32
12471;BME280;36499;46.484;13.832;2023-03-15T01:10:15;92001.56;;;6.39;83.58
12471;BME280;36499;46.484;13.832;2023-03-15T01:12:42;92003.75;;;6.42;83.22
12471;BME280;36499;46.484;13.832;2023-03-15T01:15:13;92005.75;;;6.40;83.18
12471;BME280;36499;46.484;13.832;2023-03-15T01:17:42;92004.56;;;6.18;84.21
12471;BME280;36499;46.484;13.832;2023-03-15T01:20:12;92000.72;;;6.27;83.64
12471;BME280;36499;46.484;13.832;2023-03-15T01:22:41;92000.56;;;6.22;83.59
12471;BME280;36499;46.484;13.832;2023-03-15T01:25:09;92001.00;;;6.19;83.76
12471;BME280;36499;46.484;13.832;2023-03-15T01:27:37;92001.13;;;6.24;83.00
12471;BME280;36499;46.484;13.832;2023-03-15T01:30:05;92003.47;;;6.07;84.24
12471;BME280;36499;46.484;13.832;2023-03-15T01:32:33;92012.31;;;6.00;84.38
12471;BME280;36499;46.484;13.832;2023-03-15T01:35:00;92008.59;;;6.14;84.36
12471;BME280;36499;46.484;13.832;2023-03-15T01:37:27;92015.69;;;6.00;84.44
12471;BME280;36499;46.484;13.832;2023-03-15T01:39:56;92007.69;;;6.02;84.13
12471;BME280;36499;46.484;13.832;2023-03-15T01:42:23;92005.16;;;5.95;84.10
12471;BME280;36499;46.484;13.832;2023-03-15T01:44:54;92005.22;;;6.13;83.46
12471;BME280;36499;46.484;13.832;2023-03-15T01:47:23;92014.56;;;6.14;83.44
12471;BME280;36499;46.484;13.832;2023-03-15T01:49:58;92008.59;;;6.14;83.14
12471;BME280;36499;46.484;13.832;2023-03-15T01:52:31;92011.06;;;6.02;83.63
12471;BME280;36499;46.484;13.832;2023-03-15T01:55:07;92011.25;;;6.07;83.03
12471;BME280;36499;46.484;13.832;2023-03-15T01:57:40;92012.13;;;6.19;82.79
12471;BME280;36499;46.484;13.832;2023-03-15T02:00:14;92014.59;;;6.33;82.55
12471;BME280;36499;46.484;13.832;2023-03-15T02:02:47;92013.59;;;6.52;81.49
12471;BME280;36499;46.484;13.832;2023-03-15T02:05:20;92008.31;;;6.65;80.76
12471;BME280;36499;46.484;13.832;2023-03-15T02:07:50;92010.31;;;6.63;80.07
12471;BME280;36499;46.484;13.832;2023-03-15T02:10:27;92017.97;;;6.33;81.58
12471;BME280;36499;46.484;13.832;2023-03-15T02:12:58;92014.22;;;6.29;81.70
12471;BME280;36499;46.484;13.832;2023-03-15T02:15:25;92021.91;;;6.36;80.73
12471;BME280;36499;46.484;13.832;2023-03-15T02:17:53;92024.22;;;6.25;81.05
12471;BME280;36499;46.484;13.832;2023-03-15T02:20:31;92023.44;;;6.43;80.81
12471;BME280;36499;46.484;13.832;2023-03-15T02:23:04;92026.03;;;6.43;80.60
12471;BME280;36499;46.484;13.832;2023-03-15T02:25:44;92031.44;;;6.42;80.85
12471;BME280;36499;46.484;13.832;2023-03-15T02:28:17;92025.38;;;6.30;81.15
12471;BME280;36499;46.484;13.832;2023-03-15T02:30:45;92040.06;;;6.11;82.61
12471;BME280;36499;46.484;13.832;2023-03-15T02:33:20;92034.59;;;6.01;82.97
12471;BME280;36499;46.484;13.832;2023-03-15T02:35:48;92048.19;;;5.90;83.41
12471;BME280;36499;46.484;13.832;2023-03-15T02:38:16;92051.28;;;6.05;82.15
12471;BME280;36499;46.484;13.832;2023-03-15T02:40:45;92055.16;;;6.14;81.90
12471;BME280;36499;46.484;13.832;2023-03-15T02:43:18;92054.16;;;6.40;80.51
12471;BME280;36499;46.484;13.832;2023-03-15T02:45:47;92059.31;;;6.64;78.80
12471;BME280;36499;46.484;13.832;2023-03-15T02:48:16;92058.78;;;6.74;78.40
12471;BME280;36499;46.484;13.832;2023-03-15T02:50:43;92059.16;;;6.78;78.41
12471;BME280;36499;46.484;13.832;2023-03-15T02:53:11;92065.09;;;6.85;78.54
12471;BME280;36499;46.484;13.832;2023-03-15T02:55:38;92067.81;;;6.90;78.43
12471;BME280;36499;46.484;13.832;2023-03-15T02:58:06;92069.41;;;6.91;78.19
12471;BME280;36499;46.484;13.832;2023-03-15T03:00:34;92076.72;;;6.94;78.08
12471;BME280;36499;46.484;13.832;2023-03-15T03:03:01;92077.72;;;6.93;77.71
12471;BME280;36499;46.484;13.832;2023-03-15T03:05:28;92080.56;;;6.91;77.87
12471;BME280;36499;46.484;13.832;2023-03-15T03:07:55;92080.31;;;6.93;78.18
12471;BME280;36499;46.484;13.832;2023-03-15T03:10:23;92085.81;;;6.85;77.61
12471;BME280;36499;46.484;13.832;2023-03-15T03:12:50;92086.66;;;6.79;77.42
12471;BME280;36499;46.484;13.832;2023-03-15T03:15:19;92083.53;;;6.70;77.60
12471;BME280;36499;46.484;13.832;2023-03-15T03:17:48;92089.16;;;6.67;77.95
12471;BME280;36499;46.484;13.832;2023-03-15T03:20:15;92093.66;;;6.53;78.21
12471;BME280;36499;46.484;13.832;2023-03-15T03:22:42;92096.81;;;6.55;78.18
12471;BME280;36499;46.484;13.832;2023-03-15T03:25:11;92107.19;;;6.31;79.70
12471;BME280;36499;46.484;13.832;2023-03-15T03:27:40;92108.25;;;6.48;79.31
12471;BME280;36499;46.484;13.832;2023-03-15T03:30:12;92114.84;;;6.44;80.00
12471;BME280;36499;46.484;13.832;2023-03-15T03:32:39;92116.06;;;6.41;80.03
12471;BME280;36499;46.484;13.832;2023-03-15T03:35:09;92121.19;;;6.48;80.06
12471;BME280;36499;46.484;13.832;2023-03-15T03:37:36;92126.50;;;6.28;80.28
12471;BME280;36499;46.484;13.832;2023-03-15T03:40:04;92132.53;;;6.22;80.34
12471;BME280;36499;46.484;13.832;2023-03-15T03:42:33;92132.72;;;6.27;80.10
12471;BME280;36499;46.484;13.832;2023-03-15T03:45:00;92143.13;;;6.45;79.63
12471;BME280;36499;46.484;13.832;2023-03-15T03:47:27;92143.53;;;6.42;79.90
12471;BME280;36499;46.484;13.832;2023-03-15T03:49:54;92149.66;;;6.48;79.74
12471;BME280;36499;46.484;13.832;2023-03-15T03:52:23;92152.97;;;6.55;79.42
12471;BME280;36499;46.484;13.832;2023-03-15T03:54:50;92158.81;;;6.50;79.17
12471;BME280;36499;46.484;13.832;2023-03-15T03:57:17;92163.78;;;6.52;79.18
12471;BME280;36499;46.484;13.832;2023-03-15T03:59:44;92171.00;;;6.43;79.48
12471;BME280;36499;46.484;13.832;2023-03-15T04:02:11;92183.31;;;6.48;79.38
12471;BME280;36499;46.484;13.832;2023-03-15T04:04:38;92172.00;;;6.42;79.73
12471;BME280;36499;46.484;13.832;2023-03-15T04:07:06;92169.50;;;6.29;79.99
12471;BME280;36499;46.484;13.832;2023-03-15T04:09:35;92171.09;;;6.30;78.89
12471;BME280;36499;46.484;13.832;2023-03-15T04:12:03;92168.94;;;6.27;78.94
12471;BME280;36499;46.484;13.832;2023-03-15T04:14:30;92162.84;;;6.46;78.14
12471;BME280;36499;46.484;13.832;2023-03-15T04:16:58;92167.75;;;6.54;77.54
12471;BME280;36499;46.484;13.832;2023-03-15T04:19:25;92165.72;;;6.56;77.57
12471;BME280;36499;46.484;13.832;2023-03-15T04:21:52;92164.72;;;6.57;77.31
12471;BME280;36499;46.484;13.832;2023-03-15T04:24:19;92175.66;;;6.59;77.25
12471;BME280;36499;46.484;13.832;2023-03-15T04:26:47;92176.88;;;6.57;77.05
12471;BME280;36499;46.484;13.832;2023-03-15T04:29:15;92166.00;;;6.48;77.33
12471;BME280;36499;46.484;13.832;2023-03-15T04:31:42;92185.69;;;6.49;77.88
12471;BME280;36499;46.484;13.832;2023-03-15T04:34:09;92188.91;;;6.45;77.69
12471;BME280;36499;46.484;13.832;2023-03-15T04:36:36;92191.69;;;6.50;77.56
12471;BME280;36499;46.484;13.832;2023-03-15T04:39:03;92190.28;;;6.47;77.10
12471;BME280;36499;46.484;13.832;2023-03-15T04:41:32;92187.13;;;6.45;76.82
12471;BME280;36499;46.484;13.832;2023-03-15T04:44:02;92193.28;;;6.44;76.10
12471;BME280;36499;46.484;13.832;2023-03-15T04:46:31;92195.94;;;6.38;76.05
12471;BME280;36499;46.484;13.832;2023-03-15T04:48:58;92190.38;;;6.34;76.91
12471;BME280;36499;46.484;13.832;2023-03-15T04:51:25;92191.97;;;6.35;78.36
12471;BME280;36499;46.484;13.832;2023-03-15T04:53:52;92185.94;;;6.41;78.32
12471;BME280;36499;46.484;13.832;2023-03-15T04:56:19;92191.50;;;6.45;77.80
12471;BME280;36499;46.484;13.832;2023-03-15T04:58:46;92197.72;;;6.37;78.43
12471;BME280;36499;46.484;13.832;2023-03-15T05:01:15;92194.97;;;6.32;79.05
12471;BME280;36499;46.484;13.832;2023-03-15T05:03:42;92190.63;;;6.26;79.65
12471;BME280;36499;46.484;13.832;2023-03-15T05:06:10;92191.19;;;6.28;79.23
12471;BME280;36499;46.484;13.832;2023-03-15T05:08:37;92195.09;;;6.12;79.76
12471;BME280;36499;46.484;13.832;2023-03-15T05:11:05;92194.25;;;6.18;79.58
12471;BME280;36499;46.484;13.832;2023-03-15T05:13:32;92195.22;;;6.24;78.86
12471;BME280;36499;46.484;13.832;2023-03-15T05:15:59;92190.44;;;6.21;78.53
12471;BME280;36499;46.484;13.832;2023-03-15T05:18:28;92189.25;;;6.23;78.56
12471;BME280;36499;46.484;13.832;2023-03-15T05:20:55;92204.41;;;6.20;78.18
12471;BME280;36499;46.484;13.832;2023-03-15T05:23:22;92203.25;;;6.16;77.63
12471;BME280;36499;46.484;13.832;2023-03-15T05:25:51;92203.78;;;6.24;77.59
12471;BME280;36499;46.484;13.832;2023-03-15T05:28:19;92205.75;;;6.29;77.32
12471;BME280;36499;46.484;13.832;2023-03-15T05:30:46;92200.56;;;6.29;77.33
12471;BME280;36499;46.484;13.832;2023-03-15T05:33:14;92205.53;;;6.31;76.85
12471;BME280;36499;46.484;13.832;2023-03-15T05:35:44;92208.88;;;6.38;76.52
12471;BME280;36499;46.484;13.832;2023-03-15T05:38:12;92217.22;;;6.08;77.19
12471;BME280;36499;46.484;13.832;2023-03-15T05:40:39;92225.78;;;6.02;78.16
12471;BME280;36499;46.484;13.832;2023-03-15T05:43:07;92219.81;;;6.02;78.59
12471;BME280;36499;46.484;13.832;2023-03-15T05:45:34;92231.56;;;5.98;78.44
12471;BME280;36499;46.484;13.832;2023-03-15T05:48:02;92233.59;;;5.96;79.70
12471;BME280;36499;46.484;13.832;2023-03-15T05:50:29;92238.34;;;5.99;79.33
12471;BME280;36499;46.484;13.832;2023-03-15T05:52:58;92244.91;;;5.95;79.37
12471;BME280;36499;46.484;13.832;2023-03-15T05:55:25;92246.09;;;5.99;80.17
12471;BME280;36499;46.484;13.832;2023-03-15T05:57:52;92242.94;;;5.97;79.73
12471;BME280;36499;46.484;13.832;2023-03-15T06:00:20;92247.16;;;6.29;78.80
12471;BME280;36499;46.484;13.832;2023-03-15T06:02:47;92249.16;;;6.27;78.34
12471;BME280;36499;46.484;13.832;2023-03-15T06:05:14;92252.09;;;6.37;78.04
12471;BME280;36499;46.484;13.832;2023-03-15T06:07:42;92258.84;;;6.38;77.54
12471;BME280;36499;46.484;13.832;2023-03-15T06:10:11;92255.09;;;6.34;78.06
12471;BME280;36499;46.484;13.832;2023-03-15T06:12:38;92256.31;;;6.25;77.67
12471;BME280;36499;46.484;13.832;2023-03-15T06:15:07;92257.31;;;6.31;77.76
12471;BME280;36499;46.484;13.832;2023-03-15T06:17:34;92269.50;;;6.17;77.61
12471;BME280;36499;46.484;13.832;2023-03-15T06:20:01;92278.69;;;6.06;77.22
12471;BME280;36499;46.484;13.832;2023-03-15T06:22:29;92285.13;;;5.97;78.02
12471;BME280;36499;46.484;13.832;2023-03-15T06:24:56;92283.94;;;5.87;78.44
12471;BME280;36499;46.484;13.832;2023-03-15T06:27:25;92300.41;;;5.99;78.25
12471;BME280;36499;46.484;13.832;2023-03-15T06:29:52;92300.41;;;6.05;77.98
12471;BME280;36499;46.484;13.832;2023-03-15T06:32:19;92305.94;;;6.09;78.37
12471;BME280;36499;46.484;13.832;2023-03-15T06:34:46;92312.38;;;6.00;78.48
12471;BME280;36499;46.484;13.832;2023-03-15T06:37:13;92312.75;;;6.03;78.64
12471;BME280;36499;46.484;13.832;2023-03-15T06:39:40;92325.28;;;6.06;78.41
12471;BME280;36499;46.484;13.832;2023-03-15T06:42:09;92320.31;;;6.05;78.59
12471;BME280;36499;46.484;13.832;2023-03-15T06:44:39;92332.00;;;6.14;78.18
12471;BME280;36499;46.484;13.832;2023-03-15T06:47:07;92342.13;;;6.22;77.91
12471;BME280;36499;46.484;13.832;2023-03-15T06:49:34;92346.56;;;6.15;78.38
12471;BME280;36499;46.484;13.832;2023-03-15T06:52:02;92345.75;;;6.14;78.49
12471;BME280;36499;46.484;13.832;2023-03-15T06:54:29;92350.38;;;5.86;77.81
12471;BME280;36499;46.484;13.832;2023-03-15T06:56:57;92355.53;;;6.06;76.62
12471;BME280;36499;46.484;13.832;2023-03-15T06:59:25;92364.28;;;5.78;77.01
12471;BME280;36499;46.484;13.832;2023-03-15T07:01:53;92373.28;;;5.69;76.86
12471;BME280;36499;46.484;13.832;2023-03-15T07:04:20;92384.00;;;5.60;77.47
12471;BME280;36499;46.484;13.832;2023-03-15T07:06:47;92392.78;;;5.59;77.72
12471;BME280;36499;46.484;13.832;2023-03-15T07:09:14;92393.38;;;5.61;77.87
12471;BME280;36499;46.484;13.832;2023-03-15T07:11:41;92402.72;;;5.55;77.63
12471;BME280;36499;46.484;13.832;2023-03-15T07:14:08;92407.28;;;5.47;78.18
12471;BME280;36499;46.484;13.832;2023-03-15T07:16:35;92406.47;;;5.59;77.07
12471;BME280;36499;46.484;13.832;2023-03-15T07:19:04;92418.84;;;5.51;77.70
12471;BME280;36499;46.484;13.832;2023-03-15T07:21:31;92421.41;;;5.31;79.18
12471;BME280;36499;46.484;13.832;2023-03-15T07:23:58;92426.75;;;5.23;78.50
12471;BME280;36499;46.484;13.832;2023-03-15T07:26:25;92428.75;;;5.41;78.20
12471;BME280;36499;46.484;13.832;2023-03-15T07:28:52;92430.31;;;5.22;78.47
12471;BME280;36499;46.484;13.832;2023-03-15T07:31:19;92435.88;;;5.19;78.46
12471;BME280;36499;46.484;13.832;2023-03-15T07:33:47;92438.25;;;5.07;78.50
12471;BME280;36499;46.484;13.832;2023-03-15T07:36:15;92437.81;;;4.97;78.99
12471;BME280;36499;46.484;13.832;2023-03-15T07:38:42;92439.78;;;4.95;78.56
12471;BME280;36499;46.484;13.832;2023-03-15T07:41:09;92451.38;;;5.06;78.52
12471;BME280;36499;46.484;13.832;2023-03-15T07:43:36;92444.34;;;4.87;79.47
12471;BME280;36499;46.484;13.832;2023-03-15T07:46:04;92454.63;;;4.73;80.56
12471;BME280;36499;46.484;13.832;2023-03-15T07:48:31;92461.28;;;4.48;82.27
12471;BME280;36499;46.484;13.832;2023-03-15T07:50:58;92456.41;;;4.73;81.14
12471;BME280;36499;46.484;13.832;2023-03-15T07:53:27;92463.41;;;4.86;81.52
12471;BME280;36499;46.484;13.832;2023-03-15T07:55:54;92468.00;;;4.90;80.88
12471;BME280;36499;46.484;13.832;2023-03-15T07:58:21;92474.00;;;5.04;81.01
12471;BME280;36499;46.484;13.832;2023-03-15T08:00:48;92480.16;;;5.03;81.52
12471;BME280;36499;46.484;13.832;2023-03-15T08:03:15;92479.97;;;5.11;81.67
12471;BME280;36499;46.484;13.832;2023-03-15T08:05:42;92476.00;;;5.15;81.44
12471;BME280;36499;46.484;13.832;2023-03-15T08:08:09;92479.22;;;5.30;80.79
12471;BME280;36499;46.484;13.832;2023-03-15T08:10:38;92474.09;;;5.50;80.73
12471;BME280;36499;46.484;13.832;2023-03-15T08:13:05;92478.31;;;5.70;80.17
12471;BME280;36499;46.484;13.832;2023-03-15T08:15:32;92478.88;;;5.72;80.72
12471;BME280;36499;46.484;13.832;2023-03-15T08:17:59;92477.72;;;5.82;79.71
12471;BME280;36499;46.484;13.832;2023-03-15T08:20:26;92477.09;;;5.66;80.60
12471;BME280;36499;46.484;13.832;2023-03-15T08:22:53;92462.22;;;5.95;79.51
12471;BME280;36499;46.484;13.832;2023-03-15T08:25:22;92468.59;;;5.92;80.29
12471;BME280;36499;46.484;13.832;2023-03-15T08:27:51;92477.28;;;5.71;80.36
12471;BME280;36499;46.484;13.832;2023-03-15T08:30:20;92476.94;;;5.94;79.97
12471;BME280;36499;46.484;13.832;2023-03-15T08:32:49;92467.19;;;6.03;79.59
12471;BME280;36499;46.484;13.832;2023-03-15T08:35:20;92469.19;;;6.01;78.27
12471;BME280;36499;46.484;13.832;2023-03-15T08:37:47;92474.50;;;6.25;78.64
12471;BME280;36499;46.484;13.832;2023-03-15T08:40:17;92469.72;;;6.29;78.28
12471;BME280;36499;46.484;13.832;2023-03-15T08:42:51;92465.75;;;6.33;76.79
12471;BME280;36499;46.484;13.832;2023-03-15T08:45:19;92468.53;;;6.38;76.71
12471;BME280;36499;46.484;13.832;2023-03-15T08:47:46;92479.25;;;6.48;76.47
12471;BME280;36499;46.484;13.832;2023-03-15T08:50:15;92475.22;;;6.72;75.81
12471;BME280;36499;46.484;13.832;2023-03-15T08:52:42;92478.22;;;6.62;76.49
12471;BME280;36499;46.484;13.832;2023-03-15T08:55:10;92486.16;;;6.74;75.27
12471;BME280;36499;46.484;13.832;2023-03-15T08:57:39;92488.19;;;6.59;76.29
12471;BME280;36499;46.484;13.832;2023-03-15T09:00:10;92495.09;;;6.85;75.68
12471;BME280;36499;46.484;13.832;2023-03-15T09:02:42;92492.63;;;7.03;74.38
12471;BME280;36499;46.484;13.832;2023-03-15T09:05:09;92495.38;;;7.14;73.88
12471;BME280;36499;46.484;13.832;2023-03-15T09:07:38;92494.75;;;7.19;73.43
12471;BME280;36499;46.484;13.832;2023-03-15T09:10:08;92510.44;;;7.37;73.36
12471;BME280;36499;46.484;13.832;2023-03-15T09:12:37;92500.00;;;7.44;73.94
12471;BME280;36499;46.484;13.832;2023-03-15T09:15:08;92498.25;;;7.38;73.60
12471;BME280;36499;46.484;13.832;2023-03-15T09:17:36;92502.84;;;7.36;73.52
12471;BME280;36499;46.484;13.832;2023-03-15T09:20:05;92494.78;;;7.12;72.32
12471;BME280;36499;46.484;13.832;2023-03-15T09:22:39;92510.19;;;7.39;68.76
12471;BME280;36499;46.484;13.832;2023-03-15T09:25:07;92519.06;;;7.62;69.33
12471;BME280;36499;46.484;13.832;2023-03-15T09:27:36;92536.63;;;7.60;69.43
12471;BME280;36499;46.484;13.832;2023-03-15T09:30:04;92533.53;;;7.77;67.32
12471;BME280;36499;46.484;13.832;2023-03-15T09:32:33;92526.84;;;7.62;62.13
12471;BME280;36499;46.484;13.832;2023-03-15T09:35:01;92525.09;;;7.56;65.60
12471;BME280;36499;46.484;13.832;2023-03-15T09:37:29;92517.47;;;7.93;58.02
12471;BME280;36499;46.484;13.832;2023-03-15T09:39:56;92523.19;;;8.01;54.89
12471;BME280;36499;46.484;13.832;2023-03-15T09:42:34;92543.81;;;8.21;52.89
12471;BME280;36499;46.484;13.832;2023-03-15T09:45:18;92541.22;;;8.21;50.97
12471;BME280;36499;46.484;13.832;2023-03-15T09:47:59;92529.38;;;7.38;51.47
12471;BME280;36499;46.484;13.832;2023-03-15T09:50:34;92553.06;;;6.90;47.23
12471;BME280;36499;46.484;13.832;2023-03-15T09:53:09;92561.75;;;7.22;51.68
12471;BME280;36499;46.484;13.832;2023-03-15T09:55:39;92552.34;;;7.28;49.04
12471;BME280;36499;46.484;13.832;2023-03-15T09:58:13;92545.38;;;7.66;47.41
12471;BME280;36499;46.484;13.832;2023-03-15T10:00:46;92550.94;;;7.69;50.61
12471;BME280;36499;46.484;13.832;2023-03-15T10:03:26;92545.44;;;7.84;48.00
12471;BME280;36499;46.484;13.832;2023-03-15T10:06:01;92559.97;;;7.09;45.84
12471;BME280;36499;46.484;13.832;2023-03-15T10:08:31;92571.13;;;7.16;42.42
12471;BME280;36499;46.484;13.832;2023-03-15T10:11:08;92576.03;;;7.82;42.91
12471;BME280;36499;46.484;13.832;2023-03-15T10:13:57;92559.56;;;7.63;44.77
12471;BME280;36499;46.484;13.832;2023-03-15T10:16:38;92551.03;;;7.50;43.02
12471;BME280;36499;46.484;13.832;2023-03-15T10:19:17;92555.88;;;7.78;43.15
12471;BME280;36499;46.484;13.832;2023-03-15T10:21:54;92567.19;;;7.90;41.70
12471;BME280;36499;46.484;13.832;2023-03-15T10:24:33;92566.03;;;8.10;42.93
12471;BME280;36499;46.484;13.832;2023-03-15T10:27:15;92572.75;;;8.56;43.79
12471;BME280;36499;46.484;13.832;2023-03-15T10:29:46;92553.41;;;8.20;43.03
12471;BME280;36499;46.484;13.832;2023-03-15T10:32:17;92566.25;;;8.65;40.92
12471;BME280;36499;46.484;13.832;2023-03-15T10:34:50;92566.47;;;8.63;42.38
12471;BME280;36499;46.484;13.832;2023-03-15T10:37:18;92579.13;;;8.78;40.46
12471;BME280;36499;46.484;13.832;2023-03-15T10:39:53;92563.03;;;8.70;42.49
12471;BME280;36499;46.484;13.832;2023-03-15T10:42:32;92557.00;;;8.94;42.22
12471;BME280;36499;46.484;13.832;2023-03-15T10:45:13;92557.09;;;9.72;42.70
12471;BME280;36499;46.484;13.832;2023-03-15T10:47:44;92578.31;;;10.17;37.45
12471;BME280;36499;46.484;13.832;2023-03-15T10:50:26;92566.34;;;10.27;36.15
12471;BME280;36499;46.484;13.832;2023-03-15T10:52:55;92555.13;;;9.97;36.42
12471;BME280;36499;46.484;13.832;2023-03-15T10:55:31;92571.81;;;10.37;39.58
12471;BME280;36499;46.484;13.832;2023-03-15T10:58:19;92566.88;;;10.71;37.84
12471;BME280;36499;46.484;13.832;2023-03-15T11:00:50;92560.13;;;10.28;33.10
12471;BME280;36499;46.484;13.832;2023-03-15T11:03:22;92584.19;;;10.53;33.32
12471;BME280;36499;46.484;13.832;2023-03-15T11:05:54;92568.00;;;10.63;31.92
12471;BME280;36499;46.484;13.832;2023-03-15T11:08:26;92559.63;;;10.73;34.90
12471;BME280;36499;46.484;13.832;2023-03-15T11:11:01;92572.94;;;10.30;34.06
12471;BME280;36499;46.484;13.832;2023-03-15T11:13:30;92568.09;;;9.74;30.10
12471;BME280;36499;46.484;13.832;2023-03-15T11:16:04;92565.28;;;10.17;32.00
12471;BME280;36499;46.484;13.832;2023-03-15T11:18:36;92541.00;;;10.04;33.87
12471;BME280;36499;46.484;13.832;2023-03-15T11:21:10;92543.59;;;10.04;33.24
12471;BME280;36499;46.484;13.832;2023-03-15T11:23:43;92559.78;;;9.95;31.27
12471;BME280;36499;46.484;13.832;2023-03-15T11:26:17;92563.22;;;9.77;30.83
12471;BME280;36499;46.484;13.832;2023-03-15T11:28:50;92574.69;;;9.58;31.22
12471;BME280;36499;46.484;13.832;2023-03-15T11:31:19;92546.41;;;9.61;31.97
12471;BME280;36499;46.484;13.832;2023-03-15T11:33:53;92573.06;;;8.84;31.52
12471;BME280;36499;46.484;13.832;2023-03-15T11:36:30;92567.50;;;9.72;30.46
12471;BME280;36499;46.484;13.832;2023-03-15T11:39:01;92562.63;;;9.75;32.33
12471;BME280;36499;46.484;13.832;2023-03-15T11:41:35;92577.00;;;9.96;29.81
12471;BME280;36499;46.484;13.832;2023-03-15T11:44:16;92560.94;;;9.69;30.31
12471;BME280;36499;46.484;13.832;2023-03-15T11:46:54;92568.53;;;9.82;30.40
12471;BME280;36499;46.484;13.832;2023-03-15T11:49:33;92568.63;;;10.05;31.67
12471;BME280;36499;46.484;13.832;2023-03-15T11:52:05;92576.84;;;9.61;32.14
12471;BME280;36499;46.484;13.832;2023-03-15T11:54:32;92577.19;;;9.94;32.63
12471;BME280;36499;46.484;13.832;2023-03-15T11:57:02;92579.75;;;9.83;32.44
12471;BME280;36499;46.484;13.832;2023-03-15T11:59:32;92579.84;;;10.06;31.56
12471;BME280;36499;46.484;13.832;2023-03-15T12:02:34;92591.34;;;10.81;30.81
12471;BME280;36499;46.484;13.832;2023-03-15T12:05:05;92600.09;;;10.75;28.04
12471;BME280;36499;46.484;13.832;2023-03-15T12:07:56;92582.91;;;9.73;28.80
12471;BME280;36499;46.484;13.832;2023-03-15T12:10:33;92582.34;;;9.35;29.69
12471;BME280;36499;46.484;13.832;2023-03-15T12:13:21;92598.16;;;9.70;30.85
12471;BME280;36499;46.484;13.832;2023-03-15T12:15:49;92607.13;;;9.74;32.71
12471;BME280;36499;46.484;13.832;2023-03-15T12:18:26;92598.22;;;9.63;31.84
12471;BME280;36499;46.484;13.832;2023-03-15T12:21:16;92583.16;;;10.13;31.96
12471;BME280;36499;46.484;13.832;2023-03-15T12:23:57;92575.59;;;10.65;31.20
12471;BME280;36499;46.484;13.832;2023-03-15T12:26:37;92570.38;;;10.65;32.99
12471;BME280;36499;46.484;13.832;2023-03-15T12:29:13;92574.91;;;10.92;31.76
12471;BME280;36499;46.484;13.832;2023-03-15T12:31:56;92576.97;;;10.90;29.04
12471;BME280;36499;46.484;13.832;2023-03-15T12:34:34;92585.28;;;10.34;29.00
12471;BME280;36499;46.484;13.832;2023-03-15T12:37:07;92577.94;;;10.54;32.40
12471;BME280;36499;46.484;13.832;2023-03-15T12:39:41;92579.34;;;10.92;31.08
12471;BME280;36499;46.484;13.832;2023-03-15T12:45:43;92563.41;;;11.51;31.12
12471;BME280;36499;46.484;13.832;2023-03-15T12:48:26;92566.75;;;11.87;31.13
12471;BME280;36499;46.484;13.832;2023-03-15T12:51:09;92563.94;;;12.05;28.09
12471;BME280;36499;46.484;13.832;2023-03-15T12:53:47;92571.94;;;12.15;26.98
12471;BME280;36499;46.484;13.832;2023-03-15T12:56:46;92577.69;;;12.00;26.50
12471;BME280;36499;46.484;13.832;2023-03-15T12:59:34;92572.38;;;12.24;26.54
12471;BME280;36499;46.484;13.832;2023-03-15T13:02:25;92535.69;;;12.19;24.73
12471;BME280;36499;46.484;13.832;2023-03-15T13:05:08;92599.44;;;11.03;25.67
12471;BME280;36499;46.484;13.832;2023-03-15T13:07:52;92605.53;;;11.20;26.31
12471;BME280;36499;46.484;13.832;2023-03-15T13:10:37;92625.88;;;10.42;26.69
12471;BME280;36499;46.484;13.832;2023-03-15T13:13:27;92662.59;;;10.52;24.87
12471;BME280;36499;46.484;13.832;2023-03-15T13:16:11;92635.59;;;10.35;25.18
12471;BME280;36499;46.484;13.832;2023-03-15T13:18:53;92608.38;;;10.84;26.06
12471;BME280;36499;46.484;13.832;2023-03-15T13:21:29;92619.66;;;10.54;23.02